createdAt,value
2022-12-15T00:00:45.020Z,-8.69
2022-12-15T00:03:32.155Z,-8.94
2022-12-15T00:06:19.824Z,-9.14
2022-12-15T00:09:08.563Z,-9.26
2022-12-15T00:11:58.908Z,-9.19
2022-12-15T00:14:45.004Z,-9.21
2022-12-15T00:17:32.617Z,-9.25
2022-12-15T00:20:18.771Z,-9.47
2022-12-15T00:23:04.783Z,-9.45
2022-12-15T00:25:50.657Z,-9.32
2022-12-15T00:28:36.727Z,-9.17
2022-12-15T00:31:22.935Z,-9.20
2022-12-15T00:34:10.197Z,-9.24
2022-12-15T00:36:56.479Z,-9.26
2022-12-15T00:39:25.002Z,-9.19
2022-12-15T00:41:53.894Z,-9.07
2022-12-15T00:44:23.420Z,-8.87
2022-12-15T00:46:57.157Z,-8.83
2022-12-15T00:49:48.155Z,-8.78
2022-12-15T00:52:36.811Z,-8.85
2022-12-15T00:55:24.072Z,-9.03
2022-12-15T00:58:11.898Z,-9.14
2022-12-15T01:00:57.984Z,-9.28
2022-12-15T01:03:44.762Z,-9.38
2022-12-15T01:06:36.081Z,-9.45
2022-12-15T01:09:24.059Z,-9.49
2022-12-15T01:12:10.281Z,-9.50
2022-12-15T01:14:56.286Z,-9.55
2022-12-15T01:17:42.692Z,-9.38
2022-12-15T01:20:18.312Z,-9.23
2022-12-15T01:22:51.728Z,-9.14
2022-12-15T01:25:23.847Z,-9.18
2022-12-15T01:27:52.583Z,-9.13
2022-12-15T01:30:24.912Z,-9.05
2022-12-15T01:32:54.770Z,-9.02
2022-12-15T01:35:24.026Z,-8.89
2022-12-15T01:37:54.151Z,-8.93
2022-12-15T01:40:40.647Z,-8.93
2022-12-15T01:43:16.054Z,-8.84
2022-12-15T01:45:58.853Z,-8.54
2022-12-15T01:48:36.822Z,-8.45
2022-12-15T01:51:16.421Z,-8.44
2022-12-15T01:53:57.131Z,-8.42
2022-12-15T01:56:35.514Z,-8.32
2022-12-15T01:59:10.564Z,-8.21
2022-12-15T02:01:40.484Z,-8.31
2022-12-15T02:04:10.036Z,-8.40
2022-12-15T02:06:39.037Z,-8.47
2022-12-15T02:09:09.764Z,-8.52
2022-12-15T02:11:57.659Z,-8.55
2022-12-15T02:14:48.742Z,-8.53
2022-12-15T02:17:36.711Z,-8.54
2022-12-15T02:20:44.162Z,-8.51
2022-12-15T02:24:00.778Z,-8.50
2022-12-15T02:27:22.093Z,-8.36
2022-12-15T02:30:21.234Z,-8.27
2022-12-15T02:33:09.090Z,-8.18
2022-12-15T02:35:51.191Z,-8.15
2022-12-15T02:38:32.962Z,-7.95
2022-12-15T02:41:03.639Z,-7.94
2022-12-15T02:43:37.458Z,-7.85
2022-12-15T02:46:23.619Z,-7.79
2022-12-15T02:49:09.600Z,-7.74
2022-12-15T02:51:53.383Z,-7.78
2022-12-15T02:55:03.798Z,-7.95
2022-12-15T02:57:51.564Z,-7.93
2022-12-15T03:00:20.980Z,-7.98
2022-12-15T03:02:55.033Z,-7.99
2022-12-15T03:05:26.449Z,-7.82
2022-12-15T03:07:55.944Z,-7.66
2022-12-15T03:10:27.353Z,-7.75
2022-12-15T03:12:55.931Z,-7.63
2022-12-15T03:15:33.414Z,-7.53
2022-12-15T03:18:05.915Z,-7.42
2022-12-15T03:20:34.785Z,-7.36
2022-12-15T03:23:03.532Z,-7.35
2022-12-15T03:25:32.378Z,-7.36
2022-12-15T03:28:01.075Z,-7.43
2022-12-15T03:30:29.756Z,-7.58
2022-12-15T03:32:58.327Z,-7.71
2022-12-15T03:35:28.596Z,-7.81
2022-12-15T03:37:57.233Z,-7.86
2022-12-15T03:40:26.167Z,-7.86
2022-12-15T03:42:54.744Z,-7.90
2022-12-15T03:45:26.715Z,-8.00
2022-12-15T03:47:57.351Z,-8.12
2022-12-15T03:50:30.621Z,-8.12
2022-12-15T03:53:03.687Z,-8.23
2022-12-15T03:55:32.607Z,-8.30
2022-12-15T03:58:01.190Z,-8.29
2022-12-15T04:00:31.062Z,-8.44
2022-12-15T04:02:59.933Z,-8.55
2022-12-15T04:05:32.609Z,-8.62
2022-12-15T04:08:03.410Z,-8.73
2022-12-15T04:10:35.417Z,-8.64
2022-12-15T04:13:07.436Z,-8.72
2022-12-15T04:15:38.910Z,-8.87
2022-12-15T04:18:14.089Z,-8.96
2022-12-15T04:20:43.119Z,-9.00
2022-12-15T04:23:11.703Z,-8.92
2022-12-15T04:25:58.173Z,-8.88
2022-12-15T04:28:44.163Z,-8.89
2022-12-15T04:31:33.935Z,-8.78
2022-12-15T04:34:24.264Z,-8.85
2022-12-15T04:37:13.174Z,-9.00
2022-12-15T04:40:03.441Z,-9.08
2022-12-15T04:42:52.558Z,-9.06
2022-12-15T04:45:43.195Z,-9.16
2022-12-15T04:48:30.108Z,-9.21
2022-12-15T04:51:16.559Z,-9.19
2022-12-15T04:54:05.398Z,-9.26
2022-12-15T04:56:51.694Z,-9.30
2022-12-15T04:59:37.726Z,-9.38
2022-12-15T05:02:23.926Z,-9.33
2022-12-15T05:05:10.019Z,-9.29
2022-12-15T05:07:56.212Z,-9.37
2022-12-15T05:10:43.399Z,-9.49
2022-12-15T05:13:29.868Z,-9.73
2022-12-15T05:16:16.264Z,-9.87
2022-12-15T05:19:02.484Z,-10.08
2022-12-15T05:21:48.790Z,-10.25
2022-12-15T05:24:34.956Z,-10.29
2022-12-15T05:27:22.520Z,-10.37
2022-12-15T05:30:08.551Z,-10.40
2022-12-15T05:32:37.185Z,-10.42
2022-12-15T05:35:06.602Z,-10.34
2022-12-15T05:37:35.375Z,-10.23
2022-12-15T05:40:04.019Z,-10.17
2022-12-15T05:42:33.984Z,-10.06
2022-12-15T05:45:02.723Z,-10.10
2022-12-15T05:47:31.343Z,-10.09
2022-12-15T05:49:59.884Z,-10.06
2022-12-15T05:52:28.544Z,-10.04
2022-12-15T05:54:57.203Z,-10.00
2022-12-15T05:57:25.782Z,-10.06
2022-12-15T05:59:55.855Z,-10.11
2022-12-15T06:02:24.793Z,-10.11
2022-12-15T06:04:53.836Z,-10.19
2022-12-15T06:07:22.600Z,-10.22
2022-12-15T06:09:51.661Z,-10.29
2022-12-15T06:12:20.389Z,-10.33
2022-12-15T06:14:49.882Z,-10.38
2022-12-15T06:17:20.502Z,-10.43
2022-12-15T06:19:49.171Z,-10.38
2022-12-15T06:22:17.713Z,-10.45
2022-12-15T06:24:46.281Z,-10.49
2022-12-15T06:27:14.931Z,-10.54
2022-12-15T06:29:43.582Z,-10.50
2022-12-15T06:32:12.120Z,-10.45
2022-12-15T06:34:42.160Z,-10.55
2022-12-15T06:37:10.754Z,-10.62
2022-12-15T06:39:39.607Z,-10.70
2022-12-15T06:42:08.163Z,-10.58
2022-12-15T06:44:37.043Z,-10.47
2022-12-15T06:47:06.420Z,-10.23
2022-12-15T06:49:35.318Z,-10.03
2022-12-15T06:52:07.230Z,-10.01
2022-12-15T06:54:35.834Z,-10.07
2022-12-15T06:57:07.587Z,-10.17
2022-12-15T06:59:42.321Z,-10.18
2022-12-15T07:02:25.127Z,-9.89
2022-12-15T07:04:59.037Z,-9.75
2022-12-15T07:07:32.267Z,-9.68
2022-12-15T07:10:01.109Z,-9.61
2022-12-15T07:12:29.916Z,-9.66
2022-12-15T07:14:58.687Z,-9.65
2022-12-15T07:17:27.408Z,-9.63
2022-12-15T07:19:58.371Z,-9.72
2022-12-15T07:22:29.580Z,-9.64
2022-12-15T07:24:58.619Z,-9.48
2022-12-15T07:27:27.801Z,-9.50
2022-12-15T07:29:56.786Z,-9.56
2022-12-15T07:32:25.855Z,-9.69
2022-12-15T07:34:54.520Z,-9.73
2022-12-15T07:37:23.484Z,-9.79
2022-12-15T07:39:53.632Z,-9.83
2022-12-15T07:42:22.476Z,-9.93
2022-12-15T07:44:51.522Z,-9.90
2022-12-15T07:47:20.100Z,-9.89
2022-12-15T07:49:49.451Z,-9.82
2022-12-15T07:52:18.871Z,-9.76
2022-12-15T07:54:47.697Z,-9.74
2022-12-15T07:57:18.592Z,-9.81
2022-12-15T07:59:47.548Z,-9.88
2022-12-15T08:02:16.455Z,-9.94
2022-12-15T08:04:45.649Z,-9.85
2022-12-15T08:07:14.432Z,-9.78
2022-12-15T08:09:43.213Z,-9.67
2022-12-15T08:12:11.837Z,-9.53
2022-12-15T08:14:42.211Z,-9.44
2022-12-15T08:17:11.172Z,-9.36
2022-12-15T08:19:43.792Z,-9.33
2022-12-15T08:22:13.213Z,-9.23
2022-12-15T08:24:41.975Z,-9.03
2022-12-15T08:27:21.035Z,-8.84
2022-12-15T08:29:54.412Z,-8.64
2022-12-15T08:32:23.896Z,-8.42
2022-12-15T08:34:52.948Z,-8.18
2022-12-15T08:37:21.634Z,-8.00
2022-12-15T08:39:50.913Z,-7.65
2022-12-15T08:42:19.821Z,-7.36
2022-12-15T08:44:51.815Z,-7.10
2022-12-15T08:47:20.568Z,-6.97
2022-12-15T08:49:50.339Z,-6.69
2022-12-15T08:52:24.439Z,-6.43
2022-12-15T08:54:56.963Z,-6.42
2022-12-15T08:57:25.818Z,-6.21
2022-12-15T08:59:58.372Z,-5.91
2022-12-15T09:02:27.211Z,-5.63
2022-12-15T09:04:59.254Z,-5.43
2022-12-15T09:07:28.203Z,-5.72
2022-12-15T09:09:57.155Z,-5.47
2022-12-15T09:12:25.850Z,-5.40
2022-12-15T09:14:58.722Z,-5.14
2022-12-15T09:17:30.304Z,-5.26
2022-12-15T09:19:58.934Z,-5.17
2022-12-15T09:22:28.871Z,-5.21
2022-12-15T09:25:00.542Z,-5.13
2022-12-15T09:27:30.705Z,-5.15
2022-12-15T09:30:00.862Z,-4.90
2022-12-15T09:32:29.702Z,-4.89
2022-12-15T09:34:58.489Z,-4.64
2022-12-15T09:37:27.419Z,-4.61
2022-12-15T09:39:56.387Z,-4.21
2022-12-15T09:42:40.987Z,-4.27
2022-12-15T09:45:30.094Z,-4.52
2022-12-15T09:48:09.183Z,-4.95
2022-12-15T09:50:47.925Z,-4.76
2022-12-15T09:53:53.094Z,-4.65
2022-12-15T09:56:19.771Z,-4.94
2022-12-15T09:59:01.796Z,-4.71
2022-12-15T10:01:43.435Z,-5.10
2022-12-15T10:04:28.027Z,-5.04
2022-12-15T10:07:09.867Z,-4.78
2022-12-15T10:09:42.516Z,-4.34
2022-12-15T10:13:04.579Z,-4.11
2022-12-15T10:15:42.894Z,-3.71
2022-12-15T10:18:29.845Z,-3.80
2022-12-15T10:21:08.652Z,-3.58
2022-12-15T10:23:39.544Z,-3.56
2022-12-15T10:26:23.487Z,-3.20
2022-12-15T10:29:09.715Z,-2.82
2022-12-15T10:31:51.200Z,-2.73
2022-12-15T10:34:29.220Z,-2.78
2022-12-15T10:36:59.658Z,-2.75
2022-12-15T10:39:40.758Z,-2.72
2022-12-15T10:42:21.937Z,-2.70
2022-12-15T10:44:54.154Z,-2.97
2022-12-15T10:47:26.133Z,-2.36
2022-12-15T10:53:10.956Z,-2.18
2022-12-15T10:55:49.886Z,-2.12
2022-12-15T10:58:33.415Z,-2.06
2022-12-15T11:01:19.398Z,-1.75
2022-12-15T11:03:52.245Z,-2.22
2022-12-15T11:06:27.480Z,-2.08
2022-12-15T11:09:08.706Z,-1.27
2022-12-15T11:12:05.945Z,-1.58
2022-12-15T11:14:49.078Z,-1.96
2022-12-15T11:17:23.315Z,-1.95
2022-12-15T11:20:12.545Z,-1.64
2022-12-15T11:22:51.787Z,-1.85
2022-12-15T11:25:37.314Z,-1.77
2022-12-15T11:28:17.339Z,-1.25
2022-12-15T11:30:52.936Z,-1.33
2022-12-15T11:33:23.706Z,-1.53
2022-12-15T11:36:14.949Z,-1.35
2022-12-15T11:38:57.102Z,-2.00
2022-12-15T11:41:43.825Z,-2.44
2022-12-15T11:44:26.772Z,-2.92
2022-12-15T11:47:17.188Z,-2.55
2022-12-15T11:50:10.417Z,-2.64
2022-12-15T11:53:11.438Z,-2.79
2022-12-15T11:55:54.824Z,-2.91
2022-12-15T11:59:05.229Z,-2.88
2022-12-15T12:02:03.426Z,-2.97
2022-12-15T12:04:44.784Z,-2.89
2022-12-15T12:07:35.696Z,-2.77
2022-12-15T12:10:32.607Z,-2.90
2022-12-15T12:13:20.016Z,-2.74
2022-12-15T12:16:01.815Z,-2.41
2022-12-15T12:18:38.116Z,-2.39
2022-12-15T12:21:11.979Z,-2.27
2022-12-15T12:23:51.425Z,-2.54
2022-12-15T12:26:28.347Z,-2.30
2022-12-15T12:29:08.857Z,-2.77
2022-12-15T12:31:52.855Z,-2.38
2022-12-15T12:34:34.238Z,-2.40
2022-12-15T12:37:18.281Z,-2.65
2022-12-15T12:39:48.429Z,-2.70
2022-12-15T12:42:27.154Z,-2.65
2022-12-15T12:45:00.217Z,-2.88
2022-12-15T12:47:34.154Z,-2.90
2022-12-15T12:50:16.075Z,-3.09
2022-12-15T12:52:55.866Z,-3.12
2022-12-15T12:55:41.074Z,-3.22
2022-12-15T12:58:35.608Z,-3.02
2022-12-15T13:01:32.259Z,-3.20
2022-12-15T13:04:12.474Z,-3.26
2022-12-15T13:07:05.874Z,-3.18
2022-12-15T13:09:43.639Z,-3.24
2022-12-15T13:12:50.852Z,-3.17
2022-12-15T13:15:39.269Z,-3.25
2022-12-15T13:18:31.541Z,-3.16
2022-12-15T13:22:08.756Z,-3.24
2022-12-15T13:24:42.978Z,-3.27
2022-12-15T13:27:29.947Z,-3.19
2022-12-15T13:30:02.931Z,-3.26
2022-12-15T13:32:35.399Z,-3.16
2022-12-15T13:35:25.399Z,-3.16
2022-12-15T13:37:57.349Z,-3.14
2022-12-15T13:40:51.753Z,-3.21
2022-12-15T13:43:44.927Z,-3.10
2022-12-15T13:46:21.667Z,-3.11
2022-12-15T13:49:05.970Z,-3.08
2022-12-15T13:51:45.633Z,-3.06
2022-12-15T13:54:25.689Z,-3.06
2022-12-15T13:57:04.000Z,-2.99
2022-12-15T13:59:43.430Z,-2.86
2022-12-15T14:02:32.288Z,-2.87
2022-12-15T14:05:17.420Z,-2.82
2022-12-15T14:07:54.805Z,-2.88
2022-12-15T14:10:26.898Z,-2.79
2022-12-15T14:13:11.543Z,-2.78
2022-12-15T14:15:54.636Z,-2.84
2022-12-15T14:18:33.968Z,-2.89
2022-12-15T14:21:19.836Z,-2.83
2022-12-15T14:26:44.310Z,-2.82
2022-12-15T14:29:14.281Z,-2.86
2022-12-15T14:31:43.249Z,-2.90
2022-12-15T14:34:21.051Z,-2.84
2022-12-15T14:36:50.915Z,-2.83
2022-12-15T14:39:29.531Z,-2.80
2022-12-15T14:42:04.695Z,-2.77
2022-12-15T14:44:39.385Z,-2.88
2022-12-15T14:47:20.471Z,-2.81
2022-12-15T14:49:56.704Z,-2.79
2022-12-15T14:52:34.662Z,-2.92
2022-12-15T14:55:30.951Z,-2.84
2022-12-15T14:58:00.732Z,-2.84
2022-12-15T15:00:34.693Z,-3.00
2022-12-15T15:03:06.721Z,-1.88
2022-12-15T15:03:36.473Z,-3.00
2022-12-15T15:06:24.956Z,-2.98
2022-12-15T15:08:55.085Z,-2.95
2022-12-15T15:11:31.948Z,-2.96
2022-12-15T15:14:09.388Z,-2.96
2022-12-15T15:16:41.732Z,-2.97
2022-12-15T15:19:24.365Z,-2.87
2022-12-15T15:21:57.118Z,-2.98
2022-12-15T15:24:34.975Z,-2.93
2022-12-15T15:27:36.158Z,-2.95
2022-12-15T15:30:31.264Z,-2.90
2022-12-15T15:33:02.395Z,-2.88
2022-12-15T15:35:37.574Z,-2.87
2022-12-15T15:38:18.869Z,-2.98
2022-12-15T15:40:53.196Z,-2.97
2022-12-15T15:43:29.939Z,-2.96
2022-12-15T15:46:10.279Z,-2.96
2022-12-15T15:48:47.153Z,-2.97
2022-12-15T15:51:16.222Z,-2.91
2022-12-15T15:53:45.324Z,-2.96
2022-12-15T15:56:17.805Z,-2.94
2022-12-15T15:58:48.023Z,-2.86
2022-12-15T16:01:16.738Z,-2.86
2022-12-15T16:03:45.787Z,-2.83
2022-12-15T16:06:24.594Z,-2.82
2022-12-15T16:09:01.326Z,-2.80
2022-12-15T16:11:32.623Z,-2.73
2022-12-15T16:14:03.806Z,-2.74
2022-12-15T16:16:34.951Z,-2.68
2022-12-15T16:19:12.266Z,-2.67
2022-12-15T16:21:44.756Z,-2.73
2022-12-15T16:24:23.432Z,-2.72
2022-12-15T16:26:53.216Z,-2.62
2022-12-15T16:29:23.724Z,-2.66
2022-12-15T16:31:52.933Z,-2.75
2022-12-15T16:34:25.021Z,-2.78
2022-12-15T16:36:54.152Z,-2.79
2022-12-15T16:39:33.434Z,-2.84
2022-12-15T16:42:03.321Z,-2.83
2022-12-15T16:44:33.814Z,-2.79
2022-12-15T16:47:02.912Z,-2.70
2022-12-15T16:49:38.191Z,-2.66
2022-12-15T16:52:26.062Z,-2.72
2022-12-15T16:54:55.446Z,-2.79
2022-12-15T16:57:30.220Z,-2.81
2022-12-15T17:00:12.034Z,-2.86
2022-12-15T17:02:42.125Z,-2.83
2022-12-15T17:05:11.903Z,-2.78
2022-12-15T17:07:41.086Z,-2.79
2022-12-15T17:10:17.482Z,-2.70
2022-12-15T17:12:47.791Z,-2.67
2022-12-15T17:15:29.200Z,-2.66
2022-12-15T17:17:58.283Z,-2.66
2022-12-15T17:20:31.317Z,-2.73
2022-12-15T17:23:08.131Z,-2.76
2022-12-15T17:28:37.058Z,-2.77
2022-12-15T17:31:17.194Z,-2.79
2022-12-15T17:33:46.713Z,-2.75
2022-12-15T17:36:22.478Z,-2.73
2022-12-15T17:38:58.130Z,-2.78
2022-12-15T17:41:59.801Z,-2.73
2022-12-15T17:44:37.383Z,-2.68
2022-12-15T17:47:12.150Z,-2.68
2022-12-15T17:49:41.262Z,-2.68
2022-12-15T17:52:25.752Z,-2.72
2022-12-15T17:54:58.044Z,-2.67
2022-12-15T17:57:27.140Z,-2.73
2022-12-15T17:59:56.687Z,-2.61
2022-12-15T18:02:30.228Z,-2.64
2022-12-15T18:04:59.897Z,-2.60
2022-12-15T18:07:36.595Z,-2.60
2022-12-15T18:10:31.110Z,-2.62
2022-12-15T18:13:01.902Z,-2.61
2022-12-15T18:15:33.237Z,-2.71
2022-12-15T18:18:04.248Z,-2.72
2022-12-15T18:20:33.132Z,-2.76
2022-12-15T18:23:02.111Z,-2.72
2022-12-15T18:25:35.310Z,-2.83
2022-12-15T18:28:32.911Z,-2.80
2022-12-15T18:31:16.909Z,-2.93
2022-12-15T18:33:50.150Z,-2.94
2022-12-15T18:36:19.622Z,-2.99
2022-12-15T18:38:54.132Z,-3.00
2022-12-15T18:41:23.828Z,-3.01
2022-12-15T18:43:58.836Z,-3.05
2022-12-15T18:46:28.430Z,-3.03
2022-12-15T18:49:00.621Z,-3.01
2022-12-15T18:51:35.181Z,-3.00
2022-12-15T18:54:09.903Z,-2.99
2022-12-15T18:56:38.952Z,-3.00
2022-12-15T18:59:15.964Z,-3.01
2022-12-15T19:01:46.218Z,-2.94
2022-12-15T19:04:17.700Z,-2.96
2022-12-15T19:06:49.622Z,-2.89
2022-12-15T19:09:23.373Z,-2.87
2022-12-15T19:12:10.069Z,-2.80
2022-12-15T19:14:44.194Z,-2.81
2022-12-15T19:17:33.158Z,-2.79
2022-12-15T19:20:21.469Z,-2.84
2022-12-15T19:22:51.349Z,-2.77
2022-12-15T19:25:26.094Z,-2.75
2022-12-15T19:28:04.017Z,-2.70
2022-12-15T19:30:41.961Z,-2.68
2022-12-15T19:33:11.970Z,-2.60
2022-12-15T19:35:45.537Z,-2.57
2022-12-15T19:38:24.464Z,-2.55
2022-12-15T19:40:56.070Z,-2.53
2022-12-15T19:43:26.313Z,-2.56
2022-12-15T19:46:01.076Z,-2.56
2022-12-15T19:48:29.973Z,-2.49
2022-12-15T19:51:03.571Z,-2.51
2022-12-15T19:53:33.393Z,-2.50
2022-12-15T19:56:12.340Z,-2.48
2022-12-15T19:58:45.138Z,-2.44
2022-12-15T20:01:15.747Z,-2.39
2022-12-15T20:03:54.392Z,-2.46
2022-12-15T20:06:40.676Z,-2.38
2022-12-15T20:09:19.473Z,-2.31
2022-12-15T20:11:51.177Z,-2.35
2022-12-15T20:14:23.504Z,-2.37
2022-12-15T20:16:59.660Z,-2.40
2022-12-15T20:19:35.415Z,-2.31
2022-12-15T20:22:20.110Z,-2.44
2022-12-15T20:24:52.168Z,-2.54
2022-12-15T20:27:24.912Z,-2.51
2022-12-15T20:29:53.418Z,-2.52
2022-12-15T20:32:25.378Z,-2.47
2022-12-15T20:34:57.837Z,-2.53
2022-12-15T20:37:31.528Z,-2.59
2022-12-15T20:40:00.675Z,-2.58
2022-12-15T20:42:29.733Z,-2.67
2022-12-15T20:45:01.536Z,-2.67
2022-12-15T20:47:30.744Z,-2.63
2022-12-15T20:50:02.498Z,-2.57
2022-12-15T20:52:33.561Z,-2.48
2022-12-15T20:55:11.505Z,-2.54
2022-12-15T20:57:40.650Z,-2.56
2022-12-15T21:00:13.262Z,-2.57
2022-12-15T21:02:44.963Z,-2.50
2022-12-15T21:05:24.895Z,-2.47
2022-12-15T21:07:58.156Z,-2.40
2022-12-15T21:10:28.563Z,-2.40
2022-12-15T21:12:57.319Z,-2.41
2022-12-15T21:15:26.666Z,-2.41
2022-12-15T21:18:16.984Z,-2.41
2022-12-15T21:20:54.081Z,-2.38
2022-12-15T21:23:28.999Z,-2.40
2022-12-15T21:26:00.184Z,-2.45
2022-12-15T21:28:29.252Z,-2.49
2022-12-15T21:30:58.325Z,-2.54
2022-12-15T21:33:27.542Z,-2.67
2022-12-15T21:35:56.634Z,-2.75
2022-12-15T21:38:40.711Z,-2.78
2022-12-15T21:41:15.827Z,-2.83
2022-12-15T21:43:45.486Z,-2.89
2022-12-15T21:46:24.628Z,-2.97
2022-12-15T21:49:26.055Z,-3.10
2022-12-15T21:51:59.657Z,-3.29
2022-12-15T21:54:34.298Z,-3.45
2022-12-15T21:57:03.849Z,-3.60
2022-12-15T21:59:34.443Z,-3.76
2022-12-15T22:02:19.319Z,-3.87
2022-12-15T22:04:48.904Z,-3.90
2022-12-15T22:07:22.411Z,-4.04
2022-12-15T22:09:53.499Z,-4.24
2022-12-15T22:12:25.359Z,-4.39
2022-12-15T22:14:58.378Z,-4.47
2022-12-15T22:17:26.976Z,-4.71
2022-12-15T22:19:56.369Z,-4.82
2022-12-15T22:22:31.580Z,-5.01
2022-12-15T22:25:01.974Z,-5.23
2022-12-15T22:27:34.854Z,-5.38
2022-12-15T22:30:04.424Z,-5.50
2022-12-15T22:32:33.378Z,-5.67
2022-12-15T22:35:01.914Z,-5.83
2022-12-15T22:37:30.512Z,-6.03
2022-12-15T22:39:59.096Z,-6.14
2022-12-15T22:42:29.396Z,-6.22
2022-12-15T22:44:58.497Z,-6.20
2022-12-15T22:47:27.402Z,-6.07
2022-12-15T22:49:56.500Z,-5.84
2022-12-15T22:52:25.220Z,-5.60
2022-12-15T22:57:50.317Z,-5.17
2022-12-15T23:00:19.942Z,-4.94
2022-12-15T23:02:49.559Z,-4.78
2022-12-15T23:05:21.592Z,-4.65
2022-12-15T23:07:50.797Z,-4.55
2022-12-15T23:10:39.499Z,-4.41
2022-12-15T23:13:18.022Z,-4.29
2022-12-15T23:16:13.103Z,-4.26
2022-12-15T23:18:41.846Z,-4.22
2022-12-15T23:21:10.821Z,-4.25
2022-12-15T23:23:39.918Z,-4.27
2022-12-15T23:26:09.606Z,-4.28
2022-12-15T23:28:39.854Z,-4.30
2022-12-15T23:31:10.399Z,-4.33
2022-12-15T23:33:41.933Z,-4.33
2022-12-15T23:36:14.622Z,-4.31
2022-12-15T23:38:43.753Z,-4.30
2022-12-15T23:41:18.478Z,-4.31
2022-12-15T23:43:49.071Z,-4.33
2022-12-15T23:46:19.124Z,-4.31
2022-12-15T23:48:48.263Z,-4.34
2022-12-15T23:51:19.772Z,-4.40
2022-12-15T23:53:49.847Z,-4.46
2022-12-15T23:56:23.457Z,-4.42
2022-12-15T23:59:00.449Z,-4.45
